createdAt,value
2019-05-19T00:02:20.438Z,12.37
2019-05-19T00:04:48.879Z,12.57
2019-05-19T00:07:17.307Z,12.03
2019-05-19T00:09:45.745Z,12.77
2019-05-19T00:12:14.194Z,12.60
2019-05-19T00:14:42.618Z,12.70
2019-05-19T00:17:11.130Z,13.03
2019-05-19T00:19:39.556Z,13.30
2019-05-19T00:22:07.991Z,12.77
2019-05-19T00:24:36.442Z,11.27
2019-05-19T00:27:04.852Z,12.83
2019-05-19T00:29:33.310Z,12.17
2019-05-19T00:32:01.729Z,12.53
2019-05-19T00:34:30.166Z,12.73
2019-05-19T00:36:58.598Z,12.07
2019-05-19T00:39:27.026Z,13.23
2019-05-19T00:41:55.495Z,12.67
2019-05-19T00:44:23.927Z,12.33
2019-05-19T00:46:52.439Z,13.30
2019-05-19T00:49:20.895Z,12.53
2019-05-19T00:51:49.389Z,12.77
2019-05-19T00:54:17.885Z,12.80
2019-05-19T00:56:46.702Z,11.80
2019-05-19T00:59:15.348Z,12.03
2019-05-19T01:01:43.773Z,12.17
2019-05-19T01:04:12.210Z,12.40
2019-05-19T01:06:40.648Z,12.33
2019-05-19T01:09:09.133Z,14.27
2019-05-19T01:11:37.602Z,12.53
2019-05-19T01:14:06.082Z,13.63
2019-05-19T01:16:34.521Z,13.37
2019-05-19T01:19:02.963Z,14.13
2019-05-19T01:21:32.020Z,12.73
2019-05-19T01:24:00.476Z,13.37
2019-05-19T01:26:28.891Z,13.97
2019-05-19T01:28:57.339Z,14.30
2019-05-19T01:31:25.894Z,13.83
2019-05-19T01:33:54.278Z,13.13
2019-05-19T01:36:22.744Z,14.20
2019-05-19T01:38:51.144Z,13.23
2019-05-19T01:41:19.555Z,12.00
2019-05-19T01:43:48.097Z,12.53
2019-05-19T01:46:16.512Z,11.90
2019-05-19T01:48:45.018Z,14.17
2019-05-19T01:51:13.477Z,13.57
2019-05-19T01:53:41.894Z,14.03
2019-05-19T01:56:10.348Z,14.07
2019-05-19T01:58:38.757Z,13.20
2019-05-19T02:01:07.181Z,14.43
2019-05-19T02:03:35.646Z,14.03
2019-05-19T02:06:04.210Z,14.43
2019-05-19T02:08:32.639Z,14.17
2019-05-19T02:11:01.111Z,14.03
2019-05-19T02:13:29.511Z,13.83
2019-05-19T02:15:57.940Z,14.50
2019-05-19T02:18:26.426Z,14.60
2019-05-19T02:20:54.859Z,14.23
2019-05-19T02:23:23.293Z,14.00
2019-05-19T02:25:51.708Z,14.97
2019-05-19T02:28:20.157Z,13.57
2019-05-19T02:30:48.599Z,13.57
2019-05-19T02:33:17.031Z,14.10
2019-05-19T02:35:45.520Z,14.67
2019-05-19T02:38:13.924Z,14.27
2019-05-19T02:40:45.387Z,13.87
2019-05-19T02:43:15.272Z,14.57
2019-05-19T02:45:44.223Z,13.83
2019-05-19T02:48:14.498Z,14.17
2019-05-19T02:50:52.034Z,14.30
2019-05-19T02:53:15.857Z,14.57
2019-05-19T02:55:45.125Z,14.90
2019-05-19T02:58:14.008Z,15.63
2019-05-19T03:00:43.611Z,14.63
2019-05-19T03:03:12.019Z,15.40
2019-05-19T03:05:40.515Z,14.50
2019-05-19T03:08:08.939Z,14.77
2019-05-19T03:10:37.382Z,15.10
2019-05-19T03:13:05.850Z,14.63
2019-05-19T03:15:34.283Z,15.10
2019-05-19T03:18:02.780Z,15.00
2019-05-19T03:20:31.217Z,14.20
2019-05-19T03:22:59.727Z,14.13
2019-05-19T03:25:28.190Z,14.80
2019-05-19T03:27:56.788Z,14.83
2019-05-19T03:30:26.945Z,13.97
2019-05-19T03:32:56.990Z,14.77
2019-05-19T03:35:25.429Z,14.47
2019-05-19T03:37:53.844Z,14.67
2019-05-19T03:40:22.257Z,14.60
2019-05-19T03:42:51.376Z,16.17
2019-05-19T03:45:19.943Z,16.20
2019-05-19T03:47:48.477Z,14.77
2019-05-19T03:50:17.023Z,16.23
2019-05-19T03:52:45.428Z,15.83
2019-05-19T03:55:13.924Z,15.03
2019-05-19T03:57:42.369Z,15.87
2019-05-19T04:00:11.325Z,14.73
2019-05-19T04:02:39.784Z,15.43
2019-05-19T04:05:08.858Z,15.87
2019-05-19T04:07:37.291Z,15.33
2019-05-19T04:10:06.971Z,14.70
2019-05-19T04:12:35.400Z,14.97
2019-05-19T04:15:05.272Z,15.30
2019-05-19T04:17:33.693Z,15.93
2019-05-19T04:20:02.112Z,15.50
2019-05-19T04:22:30.561Z,14.87
2019-05-19T04:24:58.967Z,16.70
2019-05-19T04:27:27.414Z,14.53
2019-05-19T04:29:55.844Z,16.40
2019-05-19T04:32:24.265Z,16.43
2019-05-19T04:34:52.713Z,15.60
2019-05-19T04:37:21.131Z,16.23
2019-05-19T04:39:49.559Z,16.13
2019-05-19T04:42:18.009Z,15.27
2019-05-19T04:44:46.494Z,15.17
2019-05-19T04:47:14.959Z,16.50
2019-05-19T04:49:43.394Z,17.20
2019-05-19T04:52:11.815Z,17.80
2019-05-19T04:54:40.300Z,18.37
2019-05-19T04:57:08.711Z,18.17
2019-05-19T04:59:37.120Z,17.43
2019-05-19T05:02:05.573Z,18.17
2019-05-19T05:04:33.981Z,17.03
2019-05-19T05:07:02.423Z,17.80
2019-05-19T05:09:30.878Z,18.67
2019-05-19T05:11:59.291Z,16.63
2019-05-19T05:14:27.729Z,16.80
2019-05-19T05:16:56.153Z,18.13
2019-05-19T05:19:24.581Z,16.67
2019-05-19T05:21:53.026Z,18.13
2019-05-19T05:24:21.503Z,17.27
2019-05-19T05:26:49.947Z,17.60
2019-05-19T05:29:18.384Z,17.53
2019-05-19T05:31:46.817Z,17.63
2019-05-19T05:34:15.261Z,18.20
2019-05-19T05:36:43.745Z,18.37
2019-05-19T05:39:12.163Z,18.47
2019-05-19T05:41:40.596Z,17.73
2019-05-19T05:44:09.100Z,17.70
2019-05-19T05:46:37.533Z,16.20
2019-05-19T05:49:05.961Z,16.63
2019-05-19T05:51:34.382Z,16.80
2019-05-19T05:54:02.818Z,15.87
2019-05-19T05:56:31.240Z,15.83
2019-05-19T05:58:59.657Z,15.70
2019-05-19T06:01:28.105Z,14.67
2019-05-19T06:03:56.512Z,13.87
2019-05-19T06:06:25.130Z,13.33
2019-05-19T06:08:53.570Z,13.10
2019-05-19T06:11:22.216Z,11.77
2019-05-19T06:13:50.660Z,9.13
2019-05-19T06:16:19.143Z,10.73
2019-05-19T06:18:47.787Z,10.53
2019-05-19T06:21:16.217Z,9.57
2019-05-19T06:23:44.654Z,9.67
2019-05-19T06:26:13.096Z,9.70
2019-05-19T06:28:41.528Z,9.47
2019-05-19T06:31:09.937Z,9.50
2019-05-19T06:33:38.424Z,8.93
2019-05-19T06:36:08.703Z,8.33
2019-05-19T06:38:37.213Z,8.00
2019-05-19T06:41:05.658Z,7.87
2019-05-19T06:43:34.214Z,7.30
2019-05-19T06:46:04.235Z,7.30
2019-05-19T06:48:32.856Z,7.17
2019-05-19T06:51:01.364Z,7.53
2019-05-19T06:53:29.959Z,6.37
2019-05-19T06:55:58.454Z,6.33
2019-05-19T06:58:29.352Z,6.47
2019-05-19T07:00:59.407Z,6.37
2019-05-19T07:03:29.361Z,6.07
2019-05-19T07:05:58.066Z,6.03
2019-05-19T07:08:28.194Z,6.10
2019-05-19T07:10:56.844Z,5.77
2019-05-19T07:13:25.436Z,6.27
2019-05-19T07:15:54.125Z,5.70
2019-05-19T07:18:22.571Z,6.53
2019-05-19T07:20:51.287Z,6.80
2019-05-19T07:23:27.814Z,5.30
2019-05-19T07:25:50.062Z,5.93
2019-05-19T07:28:18.634Z,7.05
2019-05-19T07:30:47.441Z,6.70
2019-05-19T07:33:16.265Z,6.63
2019-05-19T07:35:44.648Z,6.75
2019-05-19T07:38:13.163Z,7.87
2019-05-19T07:40:41.666Z,7.33
2019-05-19T07:43:10.075Z,7.85
2019-05-19T07:45:38.506Z,9.13
2019-05-19T07:48:06.940Z,7.05
2019-05-19T07:50:38.018Z,8.05
2019-05-19T07:53:05.615Z,8.85
2019-05-19T07:55:34.281Z,9.55
2019-05-19T07:58:02.688Z,9.45
2019-05-19T08:00:31.257Z,11.13
2019-05-19T08:02:59.817Z,10.00
2019-05-19T08:05:29.776Z,10.88
2019-05-19T08:07:58.308Z,10.77
2019-05-19T08:10:26.711Z,10.78
2019-05-19T08:12:55.139Z,11.93
2019-05-19T08:15:23.643Z,11.83
2019-05-19T08:17:52.128Z,12.07
2019-05-19T08:20:21.035Z,12.13
2019-05-19T08:22:51.415Z,12.23
2019-05-19T08:25:19.670Z,13.10
2019-05-19T08:27:48.118Z,13.03
2019-05-19T08:30:17.568Z,13.17
2019-05-19T08:32:45.979Z,13.93
2019-05-19T08:35:14.602Z,14.80
2019-05-19T08:37:43.032Z,15.27
2019-05-19T08:40:11.916Z,15.13
2019-05-19T08:42:40.341Z,13.97
2019-05-19T08:45:09.713Z,14.03
2019-05-19T08:47:38.268Z,13.00
2019-05-19T08:50:08.520Z,14.53
2019-05-19T08:52:36.956Z,14.90
2019-05-19T08:55:06.622Z,14.73
2019-05-19T08:57:35.066Z,15.23
2019-05-19T09:00:04.685Z,14.40
2019-05-19T09:02:34.429Z,14.90
2019-05-19T09:05:03.249Z,14.63
2019-05-19T09:07:31.749Z,15.97
2019-05-19T09:10:00.382Z,16.40
2019-05-19T09:12:28.838Z,16.53
2019-05-19T09:14:57.281Z,15.00
2019-05-19T09:17:25.723Z,16.27
2019-05-19T09:19:54.160Z,13.67
2019-05-19T09:22:22.584Z,13.00
2019-05-19T09:24:51.004Z,13.13
2019-05-19T09:27:19.501Z,13.87
2019-05-19T09:29:47.928Z,14.27
2019-05-19T09:32:16.582Z,13.33
2019-05-19T09:34:45.054Z,13.50
2019-05-19T09:37:13.565Z,12.47
2019-05-19T09:39:42.022Z,10.33
2019-05-19T09:42:10.586Z,10.00
2019-05-19T09:44:39.021Z,11.03
2019-05-19T09:47:07.552Z,9.67
2019-05-19T09:49:36.342Z,9.97
2019-05-19T09:52:07.014Z,9.77
2019-05-19T09:54:44.710Z,10.27
2019-05-19T09:57:05.829Z,9.70
2019-05-19T09:59:34.259Z,9.80
2019-05-19T10:02:02.767Z,8.67
2019-05-19T10:04:31.246Z,9.03
2019-05-19T10:06:59.925Z,8.70
2019-05-19T10:09:47.161Z,9.20
2019-05-19T10:12:15.569Z,9.13
2019-05-19T10:14:43.984Z,8.03
2019-05-19T10:17:12.424Z,9.57
2019-05-19T10:19:40.873Z,9.07
2019-05-19T10:22:09.367Z,9.30
2019-05-19T10:24:37.785Z,9.00
2019-05-19T10:27:06.211Z,9.03
2019-05-19T10:29:34.654Z,8.10
2019-05-19T10:32:03.064Z,9.57
2019-05-19T10:34:31.502Z,9.63
2019-05-19T10:36:59.925Z,8.73
2019-05-19T10:39:28.399Z,8.37
2019-05-19T10:41:56.939Z,8.63
2019-05-19T10:44:25.354Z,9.00
2019-05-19T10:46:53.816Z,8.80
2019-05-19T10:49:22.372Z,9.70
2019-05-19T10:51:51.020Z,9.03
2019-05-19T10:54:19.551Z,9.60
2019-05-19T10:56:48.112Z,8.90
2019-05-19T10:59:16.541Z,8.90
2019-05-19T11:01:44.962Z,9.50
2019-05-19T11:04:13.358Z,9.73
2019-05-19T11:06:41.800Z,10.43
2019-05-19T11:09:10.229Z,10.00
2019-05-19T11:11:38.744Z,10.00
2019-05-19T11:14:07.250Z,9.87
2019-05-19T11:16:35.686Z,11.00
2019-05-19T11:19:04.246Z,12.27
2019-05-19T11:21:32.680Z,11.90
2019-05-19T11:24:01.144Z,12.43
2019-05-19T11:26:29.557Z,10.43
2019-05-19T11:28:57.996Z,9.80
2019-05-19T11:31:26.477Z,9.87
2019-05-19T11:33:54.907Z,9.50
2019-05-19T11:36:23.353Z,9.77
2019-05-19T11:38:51.768Z,10.87
2019-05-19T11:41:20.201Z,11.33
2019-05-19T11:43:48.677Z,11.10
2019-05-19T11:46:17.929Z,10.40
2019-05-19T11:48:46.390Z,10.30
2019-05-19T11:51:14.792Z,9.60
2019-05-19T11:53:43.282Z,9.10
2019-05-19T11:56:11.829Z,25.53
2019-05-19T11:58:40.251Z,9.50
2019-05-19T12:01:08.670Z,9.00
2019-05-19T12:03:37.084Z,9.50
2019-05-19T12:06:05.512Z,8.83
2019-05-19T12:08:33.964Z,8.90
2019-05-19T12:11:02.452Z,9.07
2019-05-19T12:13:39.440Z,9.07
2019-05-19T12:16:09.035Z,9.07
2019-05-19T12:18:37.437Z,8.30
2019-05-19T12:21:05.923Z,8.10
2019-05-19T12:23:35.261Z,8.07
2019-05-19T12:26:03.716Z,7.80
2019-05-19T12:28:32.219Z,8.30
2019-05-19T12:31:00.661Z,8.23
2019-05-19T12:33:29.153Z,8.83
2019-05-19T12:35:57.647Z,8.20
2019-05-19T12:38:26.081Z,8.47
2019-05-19T12:40:54.527Z,8.43
2019-05-19T12:43:22.927Z,8.07
2019-05-19T12:45:51.521Z,7.40
2019-05-19T12:48:20.154Z,6.93
2019-05-19T12:50:48.579Z,6.60
2019-05-19T12:53:17.032Z,6.80
2019-05-19T12:55:45.527Z,6.10
2019-05-19T12:58:13.976Z,5.50
2019-05-19T13:00:42.416Z,5.97
2019-05-19T13:03:10.822Z,6.27
2019-05-19T13:05:39.257Z,6.30
2019-05-19T13:08:08.641Z,6.50
2019-05-19T13:10:38.063Z,3.23
2019-05-19T13:13:06.526Z,4.13
2019-05-19T13:15:35.021Z,4.20
2019-05-19T13:18:03.721Z,4.70
2019-05-19T13:20:32.230Z,6.07
2019-05-19T13:23:00.637Z,5.97
2019-05-19T13:25:29.068Z,7.63
2019-05-19T13:27:57.491Z,7.90
2019-05-19T13:30:25.903Z,6.50
2019-05-19T13:32:54.330Z,7.17
2019-05-19T13:35:22.839Z,7.80
2019-05-19T13:37:51.485Z,7.97
2019-05-19T13:40:19.962Z,7.47
2019-05-19T13:42:48.393Z,8.20
2019-05-19T13:45:17.046Z,8.23
2019-05-19T13:47:45.481Z,7.60
2019-05-19T13:50:14.371Z,7.70
2019-05-19T13:52:42.796Z,7.27
2019-05-19T13:55:11.357Z,7.50
2019-05-19T13:57:39.800Z,8.53
2019-05-19T14:00:09.850Z,7.55
2019-05-19T14:02:38.251Z,8.70
2019-05-19T14:05:07.014Z,8.07
2019-05-19T14:07:35.471Z,7.73
2019-05-19T14:10:06.923Z,7.80
2019-05-19T14:12:35.424Z,7.40
2019-05-19T14:15:05.346Z,8.28
2019-05-19T14:17:33.830Z,8.10
2019-05-19T14:20:02.273Z,8.00
2019-05-19T14:22:31.073Z,7.37
2019-05-19T14:24:59.523Z,7.40
2019-05-19T14:27:30.725Z,7.28
2019-05-19T14:29:58.122Z,6.70
2019-05-19T14:32:26.511Z,7.03
2019-05-19T14:34:54.905Z,6.33
2019-05-19T14:37:23.335Z,5.65
2019-05-19T14:39:51.741Z,4.90
2019-05-19T14:42:37.737Z,5.10
2019-05-19T14:45:08.770Z,5.37
2019-05-19T14:47:37.226Z,5.50
2019-05-19T14:50:06.942Z,5.50
2019-05-19T14:52:35.356Z,6.10
2019-05-19T14:55:04.223Z,6.10
2019-05-19T14:57:44.448Z,6.13
2019-05-19T15:00:04.440Z,6.33
2019-05-19T15:02:32.874Z,6.03
2019-05-19T15:05:01.303Z,5.80
2019-05-19T15:07:29.715Z,5.93
2019-05-19T15:09:58.124Z,6.47
2019-05-19T15:12:26.550Z,5.50
2019-05-19T15:14:54.988Z,6.20
2019-05-19T15:17:23.525Z,6.20
2019-05-19T15:19:51.923Z,5.93
2019-05-19T15:22:20.428Z,6.40
2019-05-19T15:24:48.840Z,6.00
2019-05-19T15:27:17.264Z,6.53
2019-05-19T15:29:45.679Z,6.23
2019-05-19T15:32:14.095Z,6.50
2019-05-19T15:34:42.513Z,6.93
2019-05-19T15:37:10.937Z,6.73
2019-05-19T15:39:39.351Z,6.70
2019-05-19T15:42:07.790Z,6.67
2019-05-19T15:44:36.215Z,6.53
2019-05-19T15:47:04.702Z,6.23
2019-05-19T15:49:33.118Z,6.83
2019-05-19T15:52:04.873Z,6.73
2019-05-19T15:54:31.690Z,6.53
2019-05-19T15:57:00.136Z,6.80
2019-05-19T15:59:28.557Z,6.40
2019-05-19T16:01:56.986Z,6.23
2019-05-19T16:04:25.483Z,6.60
2019-05-19T16:06:53.884Z,6.80
2019-05-19T16:09:22.325Z,6.33
2019-05-19T16:11:50.733Z,5.80
2019-05-19T16:14:19.150Z,7.03
2019-05-19T16:16:47.657Z,6.73
2019-05-19T16:19:16.069Z,6.27
2019-05-19T16:21:44.536Z,6.27
2019-05-19T16:24:12.958Z,6.60
2019-05-19T16:26:41.376Z,5.80
2019-05-19T16:29:09.798Z,6.03
2019-05-19T16:31:38.201Z,6.10
2019-05-19T16:34:06.925Z,6.40
2019-05-19T16:36:35.379Z,6.07
2019-05-19T16:39:05.076Z,5.70
2019-05-19T16:41:33.502Z,5.80
2019-05-19T16:44:01.956Z,5.80
2019-05-19T16:46:30.348Z,5.27
2019-05-19T16:48:58.850Z,5.63
2019-05-19T16:51:27.347Z,5.67
2019-05-19T16:53:57.662Z,5.57
2019-05-19T16:56:26.107Z,5.17
2019-05-19T16:58:54.504Z,5.60
2019-05-19T17:01:23.005Z,5.63
2019-05-19T17:03:51.456Z,5.60
2019-05-19T17:06:19.845Z,5.23
2019-05-19T17:08:48.358Z,5.83
2019-05-19T17:11:18.594Z,6.00
2019-05-19T17:13:47.023Z,6.33
2019-05-19T17:16:15.466Z,6.37
2019-05-19T17:18:43.878Z,6.10
2019-05-19T17:21:12.303Z,6.97
2019-05-19T17:23:40.755Z,7.07
2019-05-19T17:26:09.164Z,6.13
2019-05-19T17:28:37.587Z,6.23
2019-05-19T17:31:07.758Z,5.90
2019-05-19T17:33:36.378Z,6.63
2019-05-19T17:36:04.902Z,6.10
2019-05-19T17:38:33.316Z,6.03
2019-05-19T17:41:01.737Z,5.80
2019-05-19T17:43:30.163Z,6.53
2019-05-19T17:45:58.581Z,6.60
2019-05-19T17:48:27.197Z,6.70
2019-05-19T17:50:55.931Z,6.37
2019-05-19T17:53:24.337Z,6.10
2019-05-19T17:55:54.399Z,6.47
2019-05-19T17:58:23.688Z,6.80
2019-05-19T18:00:52.109Z,7.00
2019-05-19T18:03:20.674Z,6.90
2019-05-19T18:05:49.137Z,7.10
2019-05-19T18:08:17.540Z,6.97
2019-05-19T18:10:45.937Z,6.43
2019-05-19T18:13:14.360Z,6.50
2019-05-19T18:15:42.792Z,6.87
2019-05-19T18:18:11.276Z,6.40
2019-05-19T18:20:39.922Z,6.63
2019-05-19T18:23:08.353Z,7.10
2019-05-19T18:25:36.765Z,6.40
2019-05-19T18:28:05.225Z,6.60
2019-05-19T18:30:33.734Z,6.40
2019-05-19T18:33:02.246Z,6.63
2019-05-19T18:35:30.704Z,6.80
2019-05-19T18:37:59.190Z,7.00
2019-05-19T18:40:27.644Z,6.93
2019-05-19T18:42:56.097Z,7.07
2019-05-19T18:45:24.746Z,6.87
2019-05-19T18:47:53.294Z,6.70
2019-05-19T18:50:21.670Z,6.90
2019-05-19T18:52:50.111Z,7.00
2019-05-19T18:55:18.551Z,7.00
2019-05-19T18:57:46.989Z,7.77
2019-05-19T19:00:18.520Z,7.43
2019-05-19T19:02:48.041Z,7.97
2019-05-19T19:05:16.854Z,6.67
2019-05-19T19:07:49.647Z,6.63
2019-05-19T19:10:19.227Z,8.80
2019-05-19T19:12:48.143Z,7.57
2019-05-19T19:15:16.677Z,8.63
2019-05-19T19:17:45.049Z,8.27
2019-05-19T19:20:13.924Z,8.60
2019-05-19T19:22:42.340Z,7.43
2019-05-19T19:25:10.957Z,10.50
2019-05-19T19:27:39.460Z,8.10
2019-05-19T19:30:08.923Z,8.43
2019-05-19T19:32:37.476Z,8.33
2019-05-19T19:35:07.405Z,8.43
2019-05-19T19:37:35.901Z,8.43
2019-05-19T19:40:06.451Z,8.57
2019-05-19T19:42:34.900Z,7.80
2019-05-19T19:45:03.561Z,7.80
2019-05-19T19:47:31.961Z,7.83
2019-05-19T19:50:00.425Z,8.27
2019-05-19T19:52:28.870Z,7.90
2019-05-19T19:54:57.286Z,9.87
2019-05-19T19:57:25.709Z,8.53
2019-05-19T19:59:54.115Z,8.23
2019-05-19T20:02:22.519Z,8.13
2019-05-19T20:04:50.956Z,7.60
2019-05-19T20:07:19.404Z,8.23
2019-05-19T20:09:47.829Z,7.53
2019-05-19T20:12:16.308Z,7.43
2019-05-19T20:14:44.803Z,8.10
2019-05-19T20:17:13.257Z,7.77
2019-05-19T20:19:41.728Z,7.40
2019-05-19T20:22:10.150Z,6.77
2019-05-19T20:24:38.595Z,7.30
2019-05-19T20:27:07.080Z,7.07
2019-05-19T20:29:35.501Z,7.77
2019-05-19T20:32:03.997Z,7.10
2019-05-19T20:34:32.698Z,7.47
2019-05-19T20:37:01.213Z,7.77
2019-05-19T20:39:30.087Z,7.90
2019-05-19T20:41:58.513Z,7.27
2019-05-19T20:44:27.007Z,7.00
2019-05-19T20:46:55.428Z,8.03
2019-05-19T20:49:23.925Z,7.80
2019-05-19T20:51:52.337Z,7.63
2019-05-19T20:54:20.772Z,7.03
2019-05-19T20:56:49.199Z,7.23
2019-05-19T20:59:17.673Z,7.03
2019-05-19T21:01:46.152Z,7.43
2019-05-19T21:04:14.654Z,6.60
2019-05-19T21:06:43.070Z,6.87
2019-05-19T21:09:11.495Z,7.03
2019-05-19T21:11:39.913Z,6.63
2019-05-19T21:14:10.786Z,7.20
2019-05-19T21:16:39.213Z,7.50
2019-05-19T21:19:07.672Z,6.93
2019-05-19T21:21:36.097Z,7.93
2019-05-19T21:24:04.512Z,7.57
2019-05-19T21:26:32.930Z,8.13
2019-05-19T21:29:01.446Z,7.97
2019-05-19T21:31:29.861Z,7.70
2019-05-19T21:33:58.270Z,7.93
2019-05-19T21:36:26.702Z,8.27
2019-05-19T21:38:55.109Z,8.40
2019-05-19T21:41:23.522Z,8.23
2019-05-19T21:43:53.411Z,8.00
2019-05-19T21:46:21.876Z,8.30
2019-05-19T21:48:50.322Z,8.47
2019-05-19T21:51:18.756Z,9.07
2019-05-19T21:53:48.366Z,9.00
2019-05-19T21:56:16.814Z,8.30
2019-05-19T21:58:45.212Z,7.57
2019-05-19T22:01:22.711Z,8.50
2019-05-19T22:03:44.244Z,8.57
2019-05-19T22:06:12.719Z,8.10
2019-05-19T22:08:41.249Z,8.80
2019-05-19T22:11:09.679Z,8.70
2019-05-19T22:13:38.226Z,9.03
2019-05-19T22:16:12.935Z,8.97
2019-05-19T22:18:36.775Z,8.80
2019-05-19T22:21:05.210Z,9.70
2019-05-19T22:23:33.638Z,9.23
2019-05-19T22:26:02.065Z,9.00
2019-05-19T22:28:30.478Z,9.37
2019-05-19T22:30:58.908Z,9.63
2019-05-19T22:33:27.384Z,8.37
2019-05-19T22:35:55.826Z,9.40
2019-05-19T22:38:24.222Z,8.57
2019-05-19T22:40:52.629Z,9.30
2019-05-19T22:43:21.069Z,9.20
2019-05-19T22:45:49.490Z,9.50
2019-05-19T22:48:17.914Z,9.00
2019-05-19T22:50:47.184Z,9.20
2019-05-19T22:53:15.599Z,9.37
2019-05-19T22:55:44.046Z,9.40
2019-05-19T22:58:12.474Z,9.27
2019-05-19T23:00:40.951Z,9.00
2019-05-19T23:03:09.472Z,9.80
2019-05-19T23:05:37.887Z,10.00
2019-05-19T23:08:06.310Z,10.07
2019-05-19T23:10:35.986Z,9.93
2019-05-19T23:13:04.397Z,10.23
2019-05-19T23:15:32.832Z,10.57
2019-05-19T23:18:01.329Z,11.07
2019-05-19T23:20:29.759Z,11.23
2019-05-19T23:22:58.188Z,10.57
2019-05-19T23:25:26.625Z,10.20
2019-05-19T23:27:55.050Z,10.70
2019-05-19T23:30:23.512Z,10.17
2019-05-19T23:32:51.939Z,11.20
2019-05-19T23:35:20.365Z,10.37
2019-05-19T23:37:48.797Z,9.93
2019-05-19T23:40:17.288Z,10.93
2019-05-19T23:42:45.722Z,10.23
2019-05-19T23:45:16.414Z,10.23
2019-05-19T23:47:44.804Z,9.67
2019-05-19T23:50:13.378Z,10.53
2019-05-19T23:52:41.813Z,9.77
2019-05-19T23:55:10.574Z,9.90
2019-05-19T23:57:39.014Z,10.20
